Terminal Aerodrome Forecast
Issued by NWS Shreveport, LA

Home | Current Version | Previous Version | Text Only | Print | Product List | Glossary On
Versions: 1 2 3 4 5 6 7 8 9 10 11 12 13 14 15 16 17 18
063
FTUS44 KSHV 201146
TAFTXK
TAF
KTXK 201146Z 2012/2112 20012KT P6SM SCT009
      TEMPO 2012/2014 OVC009
     FM201600 22012G18KT P6SM SCT025 BKN250
     FM210000 18007KT P6SM SCT100 BKN250
     FM211000 19007KT P6SM BKN010=

USA.gov is the U.S. government's official web portal to all federal, state and local government web resources and services.